sensor_id;sensor_type;location;lat;lon;timestamp;temperature;humidity
65584;DHT22;70321;43.592;1.456;2023-05-24T00:01:06;17.62;78.85
65584;DHT22;70321;43.592;1.456;2023-05-24T00:03:32;17.58;79.75
65584;DHT22;70321;43.592;1.456;2023-05-24T00:06:02;17.62;80.05
65584;DHT22;70321;43.592;1.456;2023-05-24T00:08:31;17.58;80.20
65584;DHT22;70321;43.592;1.456;2023-05-24T00:10:57;17.52;79.83
65584;DHT22;70321;43.592;1.456;2023-05-24T00:13:22;17.48;80.50
65584;DHT22;70321;43.592;1.456;2023-05-24T00:15:47;17.51;81.03
65584;DHT22;70321;43.592;1.456;2023-05-24T00:18:13;17.51;80.59
65584;DHT22;70321;43.592;1.456;2023-05-24T00:20:38;17.48;80.46
65584;DHT22;70321;43.592;1.456;2023-05-24T00:23:04;17.49;80.69
65584;DHT22;70321;43.592;1.456;2023-05-24T00:25:29;17.49;80.54
65584;DHT22;70321;43.592;1.456;2023-05-24T00:27:55;17.49;80.67
65584;DHT22;70321;43.592;1.456;2023-05-24T00:30:20;17.51;80.83
65584;DHT22;70321;43.592;1.456;2023-05-24T00:32:45;17.51;80.82
65584;DHT22;70321;43.592;1.456;2023-05-24T00:35:11;17.48;80.77
65584;DHT22;70321;43.592;1.456;2023-05-24T00:37:36;17.46;81.10
65584;DHT22;70321;43.592;1.456;2023-05-24T00:40:02;17.43;81.04
65584;DHT22;70321;43.592;1.456;2023-05-24T00:42:29;17.39;80.93
65584;DHT22;70321;43.592;1.456;2023-05-24T00:44:54;17.39;80.95
65584;DHT22;70321;43.592;1.456;2023-05-24T00:47:19;17.38;81.38
65584;DHT22;70321;43.592;1.456;2023-05-24T00:49:45;17.39;81.17
65584;DHT22;70321;43.592;1.456;2023-05-24T00:52:11;17.41;81.81
65584;DHT22;70321;43.592;1.456;2023-05-24T00:54:36;17.41;80.88
65584;DHT22;70321;43.592;1.456;2023-05-24T00:57:05;17.42;81.11
65584;DHT22;70321;43.592;1.456;2023-05-24T00:59:31;17.41;81.43
65584;DHT22;70321;43.592;1.456;2023-05-24T01:01:57;17.41;81.71
65584;DHT22;70321;43.592;1.456;2023-05-24T01:04:22;17.43;81.35
65584;DHT22;70321;43.592;1.456;2023-05-24T01:07:27;17.46;80.67
65584;DHT22;70321;43.592;1.456;2023-05-24T01:10:11;17.43;81.89
65584;DHT22;70321;43.592;1.456;2023-05-24T01:13:03;17.42;81.39
65584;DHT22;70321;43.592;1.456;2023-05-24T01:15:41;17.42;81.62
65584;DHT22;70321;43.592;1.456;2023-05-24T01:18:16;17.42;81.38
65584;DHT22;70321;43.592;1.456;2023-05-24T01:20:49;17.42;81.03
65584;DHT22;70321;43.592;1.456;2023-05-24T01:23:31;17.41;81.62
65584;DHT22;70321;43.592;1.456;2023-05-24T01:26:16;17.42;81.71
65584;DHT22;70321;43.592;1.456;2023-05-24T01:28:43;17.39;81.86
65584;DHT22;70321;43.592;1.456;2023-05-24T01:31:11;17.39;81.85
65584;DHT22;70321;43.592;1.456;2023-05-24T01:33:43;17.41;80.67
65584;DHT22;70321;43.592;1.456;2023-05-24T01:36:09;17.41;80.28
65584;DHT22;70321;43.592;1.456;2023-05-24T01:38:35;17.35;81.23
65584;DHT22;70321;43.592;1.456;2023-05-24T01:44:30;17.31;81.86
65584;DHT22;70321;43.592;1.456;2023-05-24T01:47:03;17.28;81.71
65584;DHT22;70321;43.592;1.456;2023-05-24T01:49:37;17.30;82.09
65584;DHT22;70321;43.592;1.456;2023-05-24T01:52:10;17.35;80.68
65584;DHT22;70321;43.592;1.456;2023-05-24T01:54:37;17.25;81.06
65584;DHT22;70321;43.592;1.456;2023-05-24T01:57:06;17.21;81.93
65584;DHT22;70321;43.592;1.456;2023-05-24T01:59:32;17.18;82.03
65584;DHT22;70321;43.592;1.456;2023-05-24T02:01:57;17.20;82.16
65584;DHT22;70321;43.592;1.456;2023-05-24T02:04:23;17.18;81.86
65584;DHT22;70321;43.592;1.456;2023-05-24T02:06:49;17.18;82.07
65584;DHT22;70321;43.592;1.456;2023-05-24T02:09:14;17.14;81.90
65584;DHT22;70321;43.592;1.456;2023-05-24T02:11:40;17.10;81.89
65584;DHT22;70321;43.592;1.456;2023-05-24T02:14:05;17.07;81.58
65584;DHT22;70321;43.592;1.456;2023-05-24T02:16:30;17.08;82.31
65584;DHT22;70321;43.592;1.456;2023-05-24T02:18:57;17.10;82.32
65584;DHT22;70321;43.592;1.456;2023-05-24T02:21:23;17.01;82.71
65584;DHT22;70321;43.592;1.456;2023-05-24T02:23:49;17.00;82.31
65584;DHT22;70321;43.592;1.456;2023-05-24T02:26:15;17.07;82.53
65584;DHT22;70321;43.592;1.456;2023-05-24T02:28:42;17.11;81.51
65584;DHT22;70321;43.592;1.456;2023-05-24T02:31:08;17.04;82.07
65584;DHT22;70321;43.592;1.456;2023-05-24T02:33:33;16.98;82.51
65584;DHT22;70321;43.592;1.456;2023-05-24T02:35:59;17.04;82.25
65584;DHT22;70321;43.592;1.456;2023-05-24T02:38:25;17.03;82.92
65584;DHT22;70321;43.592;1.456;2023-05-24T02:40:51;16.97;83.11
65584;DHT22;70321;43.592;1.456;2023-05-24T02:43:16;17.00;83.65
65584;DHT22;70321;43.592;1.456;2023-05-24T02:45:41;16.97;83.27
65584;DHT22;70321;43.592;1.456;2023-05-24T02:48:07;17.00;83.29
65584;DHT22;70321;43.592;1.456;2023-05-24T02:50:32;16.98;82.91
65584;DHT22;70321;43.592;1.456;2023-05-24T02:52:58;16.98;83.42
65584;DHT22;70321;43.592;1.456;2023-05-24T02:55:23;16.94;83.67
65584;DHT22;70321;43.592;1.456;2023-05-24T02:57:49;16.98;83.61
65584;DHT22;70321;43.592;1.456;2023-05-24T03:00:14;17.00;83.75
65584;DHT22;70321;43.592;1.456;2023-05-24T03:02:40;17.10;82.87
65584;DHT22;70321;43.592;1.456;2023-05-24T03:05:06;17.07;82.85
65584;DHT22;70321;43.592;1.456;2023-05-24T03:07:32;17.01;83.16
65584;DHT22;70321;43.592;1.456;2023-05-24T03:09:57;17.03;83.21
65584;DHT22;70321;43.592;1.456;2023-05-24T03:12:23;17.01;83.45
65584;DHT22;70321;43.592;1.456;2023-05-24T03:14:48;16.97;83.55
65584;DHT22;70321;43.592;1.456;2023-05-24T03:17:14;16.95;83.99
65584;DHT22;70321;43.592;1.456;2023-05-24T03:19:39;16.94;83.81
65584;DHT22;70321;43.592;1.456;2023-05-24T03:22:05;16.88;83.98
65584;DHT22;70321;43.592;1.456;2023-05-24T03:24:30;16.88;83.92
65584;DHT22;70321;43.592;1.456;2023-05-24T03:26:57;16.90;83.51
65584;DHT22;70321;43.592;1.456;2023-05-24T03:29:23;16.90;83.85
65584;DHT22;70321;43.592;1.456;2023-05-24T03:31:48;17.00;83.89
65584;DHT22;70321;43.592;1.456;2023-05-24T03:34:13;16.90;83.90
65584;DHT22;70321;43.592;1.456;2023-05-24T03:36:39;16.92;84.28
65584;DHT22;70321;43.592;1.456;2023-05-24T03:39:04;16.98;83.69
65584;DHT22;70321;43.592;1.456;2023-05-24T03:41:30;16.95;83.76
65584;DHT22;70321;43.592;1.456;2023-05-24T03:43:55;16.95;83.73
65584;DHT22;70321;43.592;1.456;2023-05-24T03:46:21;16.84;84.11
65584;DHT22;70321;43.592;1.456;2023-05-24T03:48:47;16.88;83.76
65584;DHT22;70321;43.592;1.456;2023-05-24T03:51:12;16.84;84.34
65584;DHT22;70321;43.592;1.456;2023-05-24T03:53:38;16.83;84.43
65584;DHT22;70321;43.592;1.456;2023-05-24T03:56:03;16.78;84.62
65584;DHT22;70321;43.592;1.456;2023-05-24T03:58:29;16.80;84.82
65584;DHT22;70321;43.592;1.456;2023-05-24T04:00:54;16.84;84.60
65584;DHT22;70321;43.592;1.456;2023-05-24T04:03:20;16.81;84.54
65584;DHT22;70321;43.592;1.456;2023-05-24T04:05:45;16.85;84.13
65584;DHT22;70321;43.592;1.456;2023-05-24T04:08:11;16.85;84.68
65584;DHT22;70321;43.592;1.456;2023-05-24T04:10:39;16.90;84.88
65584;DHT22;70321;43.592;1.456;2023-05-24T04:13:05;16.90;84.89
65584;DHT22;70321;43.592;1.456;2023-05-24T04:15:30;16.90;84.27
65584;DHT22;70321;43.592;1.456;2023-05-24T04:17:57;16.92;84.46
65584;DHT22;70321;43.592;1.456;2023-05-24T04:20:22;16.85;84.35
65584;DHT22;70321;43.592;1.456;2023-05-24T04:22:50;16.81;84.67
65584;DHT22;70321;43.592;1.456;2023-05-24T04:25:15;16.84;84.70
65584;DHT22;70321;43.592;1.456;2023-05-24T04:27:41;16.83;84.70
65584;DHT22;70321;43.592;1.456;2023-05-24T04:30:06;16.84;85.04
65584;DHT22;70321;43.592;1.456;2023-05-24T04:32:33;16.85;85.03
65584;DHT22;70321;43.592;1.456;2023-05-24T04:34:59;16.85;84.98
65584;DHT22;70321;43.592;1.456;2023-05-24T04:37:27;16.84;84.96
65584;DHT22;70321;43.592;1.456;2023-05-24T04:39:53;16.87;84.81
65584;DHT22;70321;43.592;1.456;2023-05-24T04:42:19;16.87;84.71
65584;DHT22;70321;43.592;1.456;2023-05-24T04:44:44;16.91;84.96
65584;DHT22;70321;43.592;1.456;2023-05-24T04:47:10;16.92;84.89
65584;DHT22;70321;43.592;1.456;2023-05-24T04:49:36;16.94;85.02
65584;DHT22;70321;43.592;1.456;2023-05-24T04:52:03;16.92;84.75
65584;DHT22;70321;43.592;1.456;2023-05-24T04:54:28;16.90;84.63
65584;DHT22;70321;43.592;1.456;2023-05-24T04:56:54;16.90;84.61
65584;DHT22;70321;43.592;1.456;2023-05-24T04:59:19;16.91;84.73
65584;DHT22;70321;43.592;1.456;2023-05-24T05:01:44;16.88;84.57
65584;DHT22;70321;43.592;1.456;2023-05-24T05:04:10;16.84;84.38
65584;DHT22;70321;43.592;1.456;2023-05-24T05:06:35;16.85;84.72
65584;DHT22;70321;43.592;1.456;2023-05-24T05:09:05;16.87;84.78
65584;DHT22;70321;43.592;1.456;2023-05-24T05:11:34;16.85;84.78
65584;DHT22;70321;43.592;1.456;2023-05-24T05:13:59;16.91;84.82
65584;DHT22;70321;43.592;1.456;2023-05-24T05:16:25;16.97;85.01
65584;DHT22;70321;43.592;1.456;2023-05-24T05:18:50;16.98;84.74
65584;DHT22;70321;43.592;1.456;2023-05-24T05:21:16;17.03;84.72
65584;DHT22;70321;43.592;1.456;2023-05-24T05:23:41;17.06;84.77
65584;DHT22;70321;43.592;1.456;2023-05-24T05:26:07;17.07;84.64
65584;DHT22;70321;43.592;1.456;2023-05-24T05:28:32;17.07;84.66
65584;DHT22;70321;43.592;1.456;2023-05-24T05:30:58;17.11;84.42
65584;DHT22;70321;43.592;1.456;2023-05-24T05:33:23;17.14;83.77
65584;DHT22;70321;43.592;1.456;2023-05-24T05:35:49;17.17;83.89
65584;DHT22;70321;43.592;1.456;2023-05-24T05:38:14;17.20;83.80
65584;DHT22;70321;43.592;1.456;2023-05-24T05:40:40;17.18;83.80
65584;DHT22;70321;43.592;1.456;2023-05-24T05:43:05;17.21;84.02
65584;DHT22;70321;43.592;1.456;2023-05-24T05:45:32;17.22;84.06
65584;DHT22;70321;43.592;1.456;2023-05-24T05:47:58;17.22;84.09
65584;DHT22;70321;43.592;1.456;2023-05-24T05:50:23;17.24;83.95
65584;DHT22;70321;43.592;1.456;2023-05-24T05:52:48;17.22;83.89
65584;DHT22;70321;43.592;1.456;2023-05-24T05:55:14;17.21;83.61
65584;DHT22;70321;43.592;1.456;2023-05-24T05:57:39;17.20;83.75
65584;DHT22;70321;43.592;1.456;2023-05-24T06:00:06;17.21;83.43
65584;DHT22;70321;43.592;1.456;2023-05-24T06:02:32;17.21;83.64
65584;DHT22;70321;43.592;1.456;2023-05-24T06:04:57;17.22;83.78
65584;DHT22;70321;43.592;1.456;2023-05-24T06:07:24;17.21;83.72
65584;DHT22;70321;43.592;1.456;2023-05-24T06:09:49;17.22;83.44
65584;DHT22;70321;43.592;1.456;2023-05-24T06:12:15;17.22;83.36
65584;DHT22;70321;43.592;1.456;2023-05-24T06:14:40;17.24;83.35
65584;DHT22;70321;43.592;1.456;2023-05-24T06:17:06;17.21;83.52
65584;DHT22;70321;43.592;1.456;2023-05-24T06:19:31;17.20;83.59
65584;DHT22;70321;43.592;1.456;2023-05-24T06:21:57;17.22;83.56
65584;DHT22;70321;43.592;1.456;2023-05-24T06:24:23;17.22;83.45
65584;DHT22;70321;43.592;1.456;2023-05-24T06:26:50;17.22;83.26
65584;DHT22;70321;43.592;1.456;2023-05-24T06:29:16;17.22;83.31
65584;DHT22;70321;43.592;1.456;2023-05-24T06:31:44;17.25;83.32
65584;DHT22;70321;43.592;1.456;2023-05-24T06:34:11;17.25;83.45
65584;DHT22;70321;43.592;1.456;2023-05-24T06:36:37;17.25;83.60
65584;DHT22;70321;43.592;1.456;2023-05-24T06:39:05;17.31;83.67
65584;DHT22;70321;43.592;1.456;2023-05-24T06:41:31;17.35;83.86
65584;DHT22;70321;43.592;1.456;2023-05-24T06:43:56;17.36;83.03
65584;DHT22;70321;43.592;1.456;2023-05-24T06:46:21;17.38;83.13
65584;DHT22;70321;43.592;1.456;2023-05-24T06:48:47;17.39;83.40
65584;DHT22;70321;43.592;1.456;2023-05-24T06:51:12;17.39;83.32
65584;DHT22;70321;43.592;1.456;2023-05-24T06:53:37;17.41;83.48
65584;DHT22;70321;43.592;1.456;2023-05-24T06:56:03;17.46;83.54
65584;DHT22;70321;43.592;1.456;2023-05-24T06:58:29;17.49;83.59
65584;DHT22;70321;43.592;1.456;2023-05-24T07:00:54;17.51;83.24
65584;DHT22;70321;43.592;1.456;2023-05-24T07:03:20;17.53;83.21
65584;DHT22;70321;43.592;1.456;2023-05-24T07:05:45;17.55;83.23
65584;DHT22;70321;43.592;1.456;2023-05-24T07:08:11;17.55;83.12
65584;DHT22;70321;43.592;1.456;2023-05-24T07:10:36;17.58;82.96
65584;DHT22;70321;43.592;1.456;2023-05-24T07:13:01;17.53;82.55
65584;DHT22;70321;43.592;1.456;2023-05-24T07:15:28;17.55;82.76
65584;DHT22;70321;43.592;1.456;2023-05-24T07:17:53;17.56;82.66
65584;DHT22;70321;43.592;1.456;2023-05-24T07:20:18;17.51;82.67
65584;DHT22;70321;43.592;1.456;2023-05-24T07:22:44;17.52;82.95
65584;DHT22;70321;43.592;1.456;2023-05-24T07:25:09;17.49;82.75
65584;DHT22;70321;43.592;1.456;2023-05-24T07:27:35;17.49;82.91
65584;DHT22;70321;43.592;1.456;2023-05-24T07:30:01;17.51;83.09
65584;DHT22;70321;43.592;1.456;2023-05-24T07:32:26;17.53;82.75
65584;DHT22;70321;43.592;1.456;2023-05-24T07:34:53;17.58;82.95
65584;DHT22;70321;43.592;1.456;2023-05-24T07:37:19;17.62;83.39
65584;DHT22;70321;43.592;1.456;2023-05-24T07:39:44;17.69;82.81
65584;DHT22;70321;43.592;1.456;2023-05-24T07:42:10;17.75;82.85
65584;DHT22;70321;43.592;1.456;2023-05-24T07:44:35;17.76;82.84
65584;DHT22;70321;43.592;1.456;2023-05-24T07:47:01;17.83;82.87
65584;DHT22;70321;43.592;1.456;2023-05-24T07:49:27;17.86;82.31
65584;DHT22;70321;43.592;1.456;2023-05-24T07:51:52;17.89;82.01
65584;DHT22;70321;43.592;1.456;2023-05-24T07:54:21;17.92;82.04
65584;DHT22;70321;43.592;1.456;2023-05-24T07:56:47;17.93;81.32
65584;DHT22;70321;43.592;1.456;2023-05-24T07:59:12;17.93;81.62
65584;DHT22;70321;43.592;1.456;2023-05-24T08:01:38;17.89;81.28
65584;DHT22;70321;43.592;1.456;2023-05-24T08:04:04;17.93;81.71
65584;DHT22;70321;43.592;1.456;2023-05-24T08:06:29;18.00;81.54
65584;DHT22;70321;43.592;1.456;2023-05-24T08:08:56;18.09;81.32
65584;DHT22;70321;43.592;1.456;2023-05-24T08:11:22;18.14;81.01
65584;DHT22;70321;43.592;1.456;2023-05-24T08:13:47;18.17;80.75
65584;DHT22;70321;43.592;1.456;2023-05-24T08:16:12;18.22;80.49
65584;DHT22;70321;43.592;1.456;2023-05-24T08:18:38;18.20;80.74
65584;DHT22;70321;43.592;1.456;2023-05-24T08:21:04;18.23;80.72
65584;DHT22;70321;43.592;1.456;2023-05-24T08:23:29;18.27;80.58
65584;DHT22;70321;43.592;1.456;2023-05-24T08:25:58;18.32;80.14
65584;DHT22;70321;43.592;1.456;2023-05-24T08:28:25;18.37;79.57
65584;DHT22;70321;43.592;1.456;2023-05-24T08:30:51;18.36;79.69
65584;DHT22;70321;43.592;1.456;2023-05-24T08:33:16;18.40;80.01
65584;DHT22;70321;43.592;1.456;2023-05-24T08:35:42;18.47;79.20
65584;DHT22;70321;43.592;1.456;2023-05-24T08:38:07;18.43;79.46
65584;DHT22;70321;43.592;1.456;2023-05-24T08:40:33;18.43;79.56
65584;DHT22;70321;43.592;1.456;2023-05-24T08:43:00;18.39;79.66
65584;DHT22;70321;43.592;1.456;2023-05-24T08:45:28;18.37;79.71
65584;DHT22;70321;43.592;1.456;2023-05-24T08:47:54;18.33;79.72
65584;DHT22;70321;43.592;1.456;2023-05-24T08:50:20;18.30;79.49
65584;DHT22;70321;43.592;1.456;2023-05-24T08:52:46;18.25;79.79
65584;DHT22;70321;43.592;1.456;2023-05-24T08:55:13;18.25;80.31
65584;DHT22;70321;43.592;1.456;2023-05-24T08:57:39;18.22;80.61
65584;DHT22;70321;43.592;1.456;2023-05-24T09:00:09;18.20;80.33
65584;DHT22;70321;43.592;1.456;2023-05-24T09:02:37;18.23;80.74
65584;DHT22;70321;43.592;1.456;2023-05-24T09:05:04;18.27;80.61
65584;DHT22;70321;43.592;1.456;2023-05-24T09:07:32;18.27;80.14
65584;DHT22;70321;43.592;1.456;2023-05-24T09:10:06;18.29;80.76
65584;DHT22;70321;43.592;1.456;2023-05-24T09:12:32;18.32;80.74
65584;DHT22;70321;43.592;1.456;2023-05-24T09:14:58;18.34;80.88
65584;DHT22;70321;43.592;1.456;2023-05-24T09:17:24;18.37;80.47
65584;DHT22;70321;43.592;1.456;2023-05-24T09:19:50;18.40;80.71
65584;DHT22;70321;43.592;1.456;2023-05-24T09:22:17;18.43;80.40
65584;DHT22;70321;43.592;1.456;2023-05-24T09:24:48;18.47;80.32
65584;DHT22;70321;43.592;1.456;2023-05-24T09:27:14;18.49;80.42
65584;DHT22;70321;43.592;1.456;2023-05-24T09:29:41;18.53;80.96
65584;DHT22;70321;43.592;1.456;2023-05-24T09:32:07;18.56;80.47
65584;DHT22;70321;43.592;1.456;2023-05-24T09:34:40;18.59;80.27
65584;DHT22;70321;43.592;1.456;2023-05-24T09:37:26;18.61;80.11
65584;DHT22;70321;43.592;1.456;2023-05-24T09:39:53;18.61;80.22
65584;DHT22;70321;43.592;1.456;2023-05-24T09:42:21;18.63;79.59
65584;DHT22;70321;43.592;1.456;2023-05-24T09:45:05;18.60;80.13
65584;DHT22;70321;43.592;1.456;2023-05-24T09:47:32;18.60;80.25
65584;DHT22;70321;43.592;1.456;2023-05-24T09:50:03;18.64;80.54
65584;DHT22;70321;43.592;1.456;2023-05-24T09:52:28;18.64;80.76
65584;DHT22;70321;43.592;1.456;2023-05-24T09:54:54;18.65;80.25
65584;DHT22;70321;43.592;1.456;2023-05-24T09:57:19;18.65;79.89
65584;DHT22;70321;43.592;1.456;2023-05-24T09:59:48;18.67;79.40
65584;DHT22;70321;43.592;1.456;2023-05-24T10:02:15;18.71;79.99
65584;DHT22;70321;43.592;1.456;2023-05-24T10:04:43;18.78;79.68
65584;DHT22;70321;43.592;1.456;2023-05-24T10:07:09;18.78;79.92
65584;DHT22;70321;43.592;1.456;2023-05-24T10:09:36;18.87;79.92
65584;DHT22;70321;43.592;1.456;2023-05-24T10:12:06;18.90;79.82
65584;DHT22;70321;43.592;1.456;2023-05-24T10:14:35;18.94;80.10
65584;DHT22;70321;43.592;1.456;2023-05-24T10:17:02;19.01;79.71
65584;DHT22;70321;43.592;1.456;2023-05-24T10:19:30;19.05;79.80
65584;DHT22;70321;43.592;1.456;2023-05-24T10:21:56;19.04;78.87
65584;DHT22;70321;43.592;1.456;2023-05-24T10:24:25;19.01;79.35
65584;DHT22;70321;43.592;1.456;2023-05-24T10:26:52;19.02;78.93
65584;DHT22;70321;43.592;1.456;2023-05-24T10:29:43;18.97;78.92
65584;DHT22;70321;43.592;1.456;2023-05-24T10:32:16;18.95;78.91
65584;DHT22;70321;43.592;1.456;2023-05-24T10:34:44;18.98;79.10
65584;DHT22;70321;43.592;1.456;2023-05-24T10:37:10;18.97;78.43
65584;DHT22;70321;43.592;1.456;2023-05-24T10:39:36;19.01;78.39
65584;DHT22;70321;43.592;1.456;2023-05-24T10:42:03;19.04;78.55
65584;DHT22;70321;43.592;1.456;2023-05-24T10:44:29;19.11;78.12
65584;DHT22;70321;43.592;1.456;2023-05-24T10:47:08;19.18;77.99
65584;DHT22;70321;43.592;1.456;2023-05-24T10:49:35;19.24;78.17
65584;DHT22;70321;43.592;1.456;2023-05-24T10:52:05;19.28;78.53
65584;DHT22;70321;43.592;1.456;2023-05-24T10:54:31;19.24;78.03
65584;DHT22;70321;43.592;1.456;2023-05-24T10:57:00;19.24;77.88
65584;DHT22;70321;43.592;1.456;2023-05-24T10:59:29;19.28;78.25
65584;DHT22;70321;43.592;1.456;2023-05-24T11:01:57;19.29;77.47
65584;DHT22;70321;43.592;1.456;2023-05-24T11:04:23;19.32;77.74
65584;DHT22;70321;43.592;1.456;2023-05-24T11:06:57;19.35;76.91
65584;DHT22;70321;43.592;1.456;2023-05-24T11:09:26;19.42;77.19
65584;DHT22;70321;43.592;1.456;2023-05-24T11:11:59;19.45;76.82
65584;DHT22;70321;43.592;1.456;2023-05-24T11:14:27;19.51;77.07
65584;DHT22;70321;43.592;1.456;2023-05-24T11:16:53;19.54;77.20
65584;DHT22;70321;43.592;1.456;2023-05-24T11:19:21;19.56;76.51
65584;DHT22;70321;43.592;1.456;2023-05-24T11:21:49;19.56;76.54
65584;DHT22;70321;43.592;1.456;2023-05-24T11:24:16;19.62;77.01
65584;DHT22;70321;43.592;1.456;2023-05-24T11:26:42;19.61;76.62
65584;DHT22;70321;43.592;1.456;2023-05-24T11:29:08;19.62;76.14
65584;DHT22;70321;43.592;1.456;2023-05-24T11:31:34;19.61;76.31
65584;DHT22;70321;43.592;1.456;2023-05-24T11:34:04;19.65;76.16
65584;DHT22;70321;43.592;1.456;2023-05-24T11:36:29;19.61;75.49
65584;DHT22;70321;43.592;1.456;2023-05-24T11:38:57;19.61;75.82
65584;DHT22;70321;43.592;1.456;2023-05-24T11:41:22;19.62;75.84
65584;DHT22;70321;43.592;1.456;2023-05-24T11:43:48;19.56;76.12
65584;DHT22;70321;43.592;1.456;2023-05-24T11:46:14;19.58;76.59
65584;DHT22;70321;43.592;1.456;2023-05-24T11:48:40;19.59;77.37
65584;DHT22;70321;43.592;1.456;2023-05-24T11:51:05;19.62;77.08
65584;DHT22;70321;43.592;1.456;2023-05-24T11:53:31;19.62;76.92
65584;DHT22;70321;43.592;1.456;2023-05-24T11:55:56;19.69;77.04
65584;DHT22;70321;43.592;1.456;2023-05-24T11:58:43;19.76;76.62
65584;DHT22;70321;43.592;1.456;2023-05-24T12:01:30;19.85;76.81
65584;DHT22;70321;43.592;1.456;2023-05-24T12:03:55;19.92;76.27
65584;DHT22;70321;43.592;1.456;2023-05-24T12:06:21;19.97;76.35
65584;DHT22;70321;43.592;1.456;2023-05-24T12:08:47;19.94;76.27
65584;DHT22;70321;43.592;1.456;2023-05-24T12:11:14;19.90;76.69
65584;DHT22;70321;43.592;1.456;2023-05-24T12:13:40;19.87;76.46
65584;DHT22;70321;43.592;1.456;2023-05-24T12:16:06;19.83;76.44
65584;DHT22;70321;43.592;1.456;2023-05-24T12:18:32;19.80;76.77
65584;DHT22;70321;43.592;1.456;2023-05-24T12:20:57;19.85;76.60
65584;DHT22;70321;43.592;1.456;2023-05-24T12:23:25;19.80;76.57
65584;DHT22;70321;43.592;1.456;2023-05-24T12:26:00;19.77;76.62
65584;DHT22;70321;43.592;1.456;2023-05-24T12:28:26;19.76;76.91
65584;DHT22;70321;43.592;1.456;2023-05-24T12:30:52;19.76;76.80
65584;DHT22;70321;43.592;1.456;2023-05-24T12:33:18;19.75;76.76
65584;DHT22;70321;43.592;1.456;2023-05-24T12:35:45;19.76;77.01
65584;DHT22;70321;43.592;1.456;2023-05-24T12:38:11;19.80;77.26
65584;DHT22;70321;43.592;1.456;2023-05-24T12:40:41;19.82;76.84
65584;DHT22;70321;43.592;1.456;2023-05-24T12:43:07;19.80;76.86
65584;DHT22;70321;43.592;1.456;2023-05-24T12:45:34;19.80;77.14
65584;DHT22;70321;43.592;1.456;2023-05-24T12:48:01;19.75;77.35
65584;DHT22;70321;43.592;1.456;2023-05-24T12:50:29;19.75;77.29
65584;DHT22;70321;43.592;1.456;2023-05-24T12:52:55;19.73;77.39
65584;DHT22;70321;43.592;1.456;2023-05-24T12:55:25;19.70;78.15
65584;DHT22;70321;43.592;1.456;2023-05-24T12:57:51;19.72;78.21
65584;DHT22;70321;43.592;1.456;2023-05-24T13:00:27;19.72;77.67
65584;DHT22;70321;43.592;1.456;2023-05-24T13:02:55;19.73;78.63
65584;DHT22;70321;43.592;1.456;2023-05-24T13:05:24;19.77;79.11
65584;DHT22;70321;43.592;1.456;2023-05-24T13:07:51;19.75;78.07
65584;DHT22;70321;43.592;1.456;2023-05-24T13:10:16;19.80;78.18
65584;DHT22;70321;43.592;1.456;2023-05-24T13:12:43;19.83;78.61
65584;DHT22;70321;43.592;1.456;2023-05-24T13:15:09;19.85;78.71
65584;DHT22;70321;43.592;1.456;2023-05-24T13:17:35;19.87;77.44
65584;DHT22;70321;43.592;1.456;2023-05-24T13:20:02;19.92;76.99
65584;DHT22;70321;43.592;1.456;2023-05-24T13:22:36;19.93;77.13
65584;DHT22;70321;43.592;1.456;2023-05-24T13:25:02;19.99;77.52
65584;DHT22;70321;43.592;1.456;2023-05-24T13:27:28;19.94;77.06
65584;DHT22;70321;43.592;1.456;2023-05-24T13:29:54;19.93;76.56
65584;DHT22;70321;43.592;1.456;2023-05-24T13:32:20;19.90;77.22
65584;DHT22;70321;43.592;1.456;2023-05-24T13:34:45;19.85;77.13
65584;DHT22;70321;43.592;1.456;2023-05-24T13:37:11;19.82;77.05
65584;DHT22;70321;43.592;1.456;2023-05-24T13:39:36;19.82;77.27
65584;DHT22;70321;43.592;1.456;2023-05-24T13:42:02;19.85;78.09
65584;DHT22;70321;43.592;1.456;2023-05-24T13:44:28;19.83;78.08
65584;DHT22;70321;43.592;1.456;2023-05-24T13:46:55;19.85;77.70
65584;DHT22;70321;43.592;1.456;2023-05-24T13:49:21;19.85;77.57
65584;DHT22;70321;43.592;1.456;2023-05-24T13:51:46;19.85;78.00
65584;DHT22;70321;43.592;1.456;2023-05-24T13:54:12;19.86;78.02
65584;DHT22;70321;43.592;1.456;2023-05-24T13:56:38;19.83;77.90
65584;DHT22;70321;43.592;1.456;2023-05-24T13:59:05;19.79;77.84
65584;DHT22;70321;43.592;1.456;2023-05-24T14:01:31;19.82;77.88
65584;DHT22;70321;43.592;1.456;2023-05-24T14:03:57;19.85;78.14
65584;DHT22;70321;43.592;1.456;2023-05-24T14:06:23;19.87;78.12
65584;DHT22;70321;43.592;1.456;2023-05-24T14:08:48;19.86;77.84
65584;DHT22;70321;43.592;1.456;2023-05-24T14:11:14;19.89;78.14
65584;DHT22;70321;43.592;1.456;2023-05-24T14:13:40;19.87;78.16
65584;DHT22;70321;43.592;1.456;2023-05-24T14:16:06;19.87;78.41
65584;DHT22;70321;43.592;1.456;2023-05-24T14:18:32;19.90;78.61
65584;DHT22;70321;43.592;1.456;2023-05-24T14:20:58;19.93;79.07
65584;DHT22;70321;43.592;1.456;2023-05-24T14:23:23;20.00;78.43
65584;DHT22;70321;43.592;1.456;2023-05-24T14:25:49;20.01;78.54
65584;DHT22;70321;43.592;1.456;2023-05-24T14:28:16;20.07;78.62
65584;DHT22;70321;43.592;1.456;2023-05-24T14:30:42;20.13;78.69
65584;DHT22;70321;43.592;1.456;2023-05-24T14:33:08;20.17;77.99
65584;DHT22;70321;43.592;1.456;2023-05-24T14:35:35;20.20;77.93
65584;DHT22;70321;43.592;1.456;2023-05-24T14:38:05;20.24;77.77
65584;DHT22;70321;43.592;1.456;2023-05-24T14:40:31;20.29;76.73
65584;DHT22;70321;43.592;1.456;2023-05-24T14:42:59;20.24;76.17
65584;DHT22;70321;43.592;1.456;2023-05-24T14:45:24;20.29;76.73
65584;DHT22;70321;43.592;1.456;2023-05-24T14:47:50;20.33;76.66
65584;DHT22;70321;43.592;1.456;2023-05-24T14:50:15;20.33;76.70
65584;DHT22;70321;43.592;1.456;2023-05-24T14:52:40;20.37;76.26
65584;DHT22;70321;43.592;1.456;2023-05-24T14:55:06;20.36;75.81
65584;DHT22;70321;43.592;1.456;2023-05-24T14:57:32;20.36;76.10
65584;DHT22;70321;43.592;1.456;2023-05-24T14:59:57;20.39;76.09
65584;DHT22;70321;43.592;1.456;2023-05-24T15:02:22;20.43;76.45
65584;DHT22;70321;43.592;1.456;2023-05-24T15:04:48;20.45;76.18
65584;DHT22;70321;43.592;1.456;2023-05-24T15:07:13;20.55;76.72
65584;DHT22;70321;43.592;1.456;2023-05-24T15:09:39;20.61;76.05
65584;DHT22;70321;43.592;1.456;2023-05-24T15:12:05;20.68;75.93
65584;DHT22;70321;43.592;1.456;2023-05-24T15:14:31;20.74;76.33
65584;DHT22;70321;43.592;1.456;2023-05-24T15:16:57;20.83;76.07
65584;DHT22;70321;43.592;1.456;2023-05-24T15:19:22;20.88;75.76
65584;DHT22;70321;43.592;1.456;2023-05-24T15:21:47;20.96;76.13
65584;DHT22;70321;43.592;1.456;2023-05-24T15:24:13;21.02;75.39
65584;DHT22;70321;43.592;1.456;2023-05-24T15:26:39;21.04;75.27
65584;DHT22;70321;43.592;1.456;2023-05-24T15:29:04;21.04;74.51
65584;DHT22;70321;43.592;1.456;2023-05-24T15:31:30;21.06;74.93